createdAt,value
2019-04-30T00:00:45.451Z,9.87
2019-04-30T00:03:25.147Z,11.30
2019-04-30T00:05:57.295Z,9.77
2019-04-30T00:08:25.826Z,12.00
2019-04-30T00:10:55.502Z,11.07
2019-04-30T00:13:25.882Z,13.97
2019-04-30T00:15:58.719Z,11.50
2019-04-30T00:18:25.442Z,9.67
2019-04-30T00:20:55.335Z,12.13
2019-04-30T00:23:29.317Z,12.70
2019-04-30T00:25:59.203Z,11.47
2019-04-30T00:28:25.584Z,13.27
2019-04-30T00:30:56.163Z,6.90
2019-04-30T00:33:27.461Z,10.07
2019-04-30T00:35:57.976Z,13.83
2019-04-30T00:38:29.482Z,11.93
2019-04-30T00:40:57.710Z,13.60
2019-04-30T00:43:26.303Z,7.37
2019-04-30T00:45:55.340Z,11.80
2019-04-30T00:48:29.536Z,10.73
2019-04-30T00:50:55.778Z,10.23
2019-04-30T00:53:26.213Z,13.47
2019-04-30T00:55:57.156Z,9.87
2019-04-30T00:58:30.267Z,12.93
2019-04-30T01:01:15.248Z,12.73
2019-04-30T01:03:49.292Z,8.00
2019-04-30T01:06:17.183Z,11.77
2019-04-30T01:08:46.745Z,13.57
2019-04-30T01:11:15.596Z,12.90
2019-04-30T01:13:50.231Z,7.97
2019-04-30T01:16:14.661Z,8.87
2019-04-30T01:18:43.286Z,10.97
2019-04-30T01:21:11.928Z,8.97
2019-04-30T01:23:47.875Z,10.30
2019-04-30T01:26:11.218Z,13.50
2019-04-30T01:28:39.854Z,13.73
2019-04-30T01:31:09.002Z,8.93
2019-04-30T01:33:38.985Z,9.13
2019-04-30T01:36:09.590Z,9.43
2019-04-30T01:38:40.017Z,10.27
2019-04-30T01:41:09.484Z,14.40
2019-04-30T01:43:38.657Z,9.93
2019-04-30T01:46:11.155Z,11.03
2019-04-30T01:48:39.325Z,7.53
2019-04-30T01:51:08.957Z,9.43
2019-04-30T01:53:38.684Z,10.13
2019-04-30T01:56:15.051Z,13.47
2019-04-30T01:58:49.488Z,14.73
2019-04-30T02:01:19.952Z,8.00
2019-04-30T02:03:48.785Z,14.13
2019-04-30T02:06:19.572Z,9.47
2019-04-30T02:08:49.393Z,8.70
2019-04-30T02:11:19.007Z,9.40
2019-04-30T02:13:49.203Z,6.53
2019-04-30T02:16:20.745Z,8.27
2019-04-30T02:18:49.500Z,9.83
2019-04-30T02:21:19.428Z,11.30
2019-04-30T02:23:49.281Z,10.23
2019-04-30T02:26:18.730Z,9.23
2019-04-30T02:28:49.463Z,10.07
2019-04-30T02:31:22.307Z,9.37
2019-04-30T02:33:50.377Z,6.50
2019-04-30T02:36:40.307Z,7.10
2019-04-30T02:39:11.111Z,9.07
2019-04-30T02:41:41.240Z,8.33
2019-04-30T02:44:11.254Z,12.70
2019-04-30T02:46:41.781Z,11.27
2019-04-30T02:49:12.433Z,11.67
2019-04-30T02:51:42.890Z,16.20
2019-04-30T02:54:23.679Z,10.27
2019-04-30T02:56:51.857Z,42.07
2019-04-30T02:59:20.482Z,14.73
2019-04-30T03:01:50.262Z,20.37
2019-04-30T03:04:19.743Z,47.07
2019-04-30T03:06:50.220Z,50.17
2019-04-30T03:09:20.272Z,30.03
2019-04-30T03:11:50.160Z,39.47
2019-04-30T03:14:20.086Z,16.30
2019-04-30T03:17:00.106Z,14.20
2019-04-30T03:19:33.542Z,20.77
2019-04-30T03:22:03.796Z,15.63
2019-04-30T03:24:32.555Z,13.03
2019-04-30T03:27:01.192Z,14.30
2019-04-30T03:29:30.451Z,17.50
2019-04-30T03:32:02.519Z,17.37
2019-04-30T03:34:32.593Z,18.60
2019-04-30T03:37:02.064Z,20.37
2019-04-30T03:39:33.648Z,13.20
2019-04-30T03:42:00.641Z,10.60
2019-04-30T03:44:32.262Z,16.77
2019-04-30T03:46:59.644Z,17.00
2019-04-30T03:49:29.933Z,10.70
2019-04-30T03:51:59.782Z,18.93
2019-04-30T03:54:29.396Z,11.57
2019-04-30T03:57:00.724Z,13.33
2019-04-30T03:59:30.229Z,18.57
2019-04-30T04:02:00.729Z,15.60
2019-04-30T04:04:52.101Z,21.27
2019-04-30T04:07:20.304Z,26.17
2019-04-30T04:09:59.871Z,14.53
2019-04-30T04:12:30.286Z,11.17
2019-04-30T04:15:03.219Z,19.60
2019-04-30T04:17:31.425Z,22.73
2019-04-30T04:20:00.060Z,13.37
2019-04-30T04:22:30.599Z,11.10
2019-04-30T04:24:59.973Z,16.80
2019-04-30T04:27:30.180Z,19.03
2019-04-30T04:30:01.079Z,14.23
2019-04-30T04:32:30.810Z,14.10
2019-04-30T04:35:00.405Z,31.87
2019-04-30T04:37:30.142Z,18.73
2019-04-30T04:39:59.671Z,12.47
2019-04-30T04:42:29.951Z,15.70
2019-04-30T04:44:59.555Z,14.30
2019-04-30T04:47:30.842Z,12.23
2019-04-30T04:50:00.741Z,20.67
2019-04-30T04:52:31.650Z,21.77
2019-04-30T04:55:00.410Z,11.77
2019-04-30T04:57:30.535Z,12.00
2019-04-30T05:00:06.416Z,12.33
2019-04-30T05:02:40.365Z,18.53
2019-04-30T05:05:09.798Z,17.77
2019-04-30T05:07:39.953Z,13.50
2019-04-30T05:10:09.270Z,12.23
2019-04-30T05:12:39.826Z,12.77
2019-04-30T05:15:09.465Z,21.00
2019-04-30T05:17:39.726Z,12.80
2019-04-30T05:20:09.983Z,15.63
2019-04-30T05:22:39.165Z,20.77
2019-04-30T05:25:08.809Z,17.43
2019-04-30T05:27:39.228Z,14.43
2019-04-30T05:30:11.761Z,19.40
2019-04-30T05:32:39.240Z,16.50
2019-04-30T05:35:09.589Z,19.00
2019-04-30T05:37:38.621Z,27.33
2019-04-30T05:40:09.247Z,16.00
2019-04-30T05:42:38.742Z,20.97
2019-04-30T05:45:09.468Z,22.13
2019-04-30T05:47:38.878Z,21.87
2019-04-30T05:50:09.031Z,14.73
2019-04-30T05:52:39.717Z,16.00
2019-04-30T05:55:08.796Z,30.10
2019-04-30T05:57:40.807Z,14.40
2019-04-30T06:00:09.917Z,33.37
2019-04-30T06:02:39.917Z,43.80
2019-04-30T06:05:08.941Z,36.40
2019-04-30T06:07:39.396Z,16.70
2019-04-30T06:10:10.094Z,13.30
2019-04-30T06:12:55.471Z,18.20
2019-04-30T06:15:44.155Z,16.47
2019-04-30T06:18:14.000Z,19.83
2019-04-30T06:20:42.890Z,25.70
2019-04-30T06:23:11.523Z,29.57
2019-04-30T06:25:55.802Z,27.73
2019-04-30T06:28:10.853Z,19.47
2019-04-30T06:30:39.875Z,17.97
2019-04-30T06:33:11.418Z,15.33
2019-04-30T06:35:39.268Z,14.20
2019-04-30T06:38:08.560Z,23.90
2019-04-30T06:40:39.075Z,17.03
2019-04-30T06:43:09.136Z,13.03
2019-04-30T06:45:38.813Z,19.67
2019-04-30T06:48:09.026Z,10.63
2019-04-30T06:50:39.358Z,25.47
2019-04-30T06:53:09.349Z,24.33
2019-04-30T06:55:39.165Z,21.53
2019-04-30T06:58:14.665Z,17.27
2019-04-30T07:00:40.049Z,34.23
2019-04-30T07:03:09.767Z,15.63
2019-04-30T07:05:39.240Z,23.03
2019-04-30T07:08:15.531Z,14.70
2019-04-30T07:10:55.009Z,21.43
2019-04-30T07:13:19.076Z,14.50
2019-04-30T07:15:49.004Z,15.37
2019-04-30T07:18:18.985Z,27.67
2019-04-30T07:20:48.631Z,28.10
2019-04-30T07:23:18.806Z,15.00
2019-04-30T07:25:49.303Z,13.67
2019-04-30T07:28:19.075Z,25.00
2019-04-30T07:30:49.480Z,17.50
2019-04-30T07:33:20.746Z,20.37
2019-04-30T07:35:49.888Z,14.10
2019-04-30T07:38:19.342Z,24.87
2019-04-30T07:40:49.306Z,24.90
2019-04-30T07:43:18.983Z,33.27
2019-04-30T07:45:49.597Z,23.63
2019-04-30T07:48:21.137Z,30.20
2019-04-30T07:50:51.473Z,37.27
2019-04-30T07:53:18.907Z,27.58
2019-04-30T07:55:49.420Z,27.57
2019-04-30T07:58:20.520Z,21.97
2019-04-30T08:00:49.704Z,18.20
2019-04-30T08:03:26.669Z,37.50
2019-04-30T08:05:59.837Z,21.50
2019-04-30T08:08:30.180Z,29.67
2019-04-30T08:10:59.190Z,35.10
2019-04-30T08:13:31.961Z,28.00
2019-04-30T08:15:59.636Z,19.10
2019-04-30T08:18:29.487Z,21.20
2019-04-30T08:20:58.678Z,19.70
2019-04-30T08:23:34.733Z,10.97
2019-04-30T08:25:58.985Z,16.30
2019-04-30T08:28:30.114Z,12.73
2019-04-30T08:30:58.917Z,6.50
2019-04-30T08:33:29.253Z,8.80
2019-04-30T08:36:00.770Z,6.07
2019-04-30T08:38:30.038Z,27.13
2019-04-30T08:41:00.830Z,13.70
2019-04-30T08:43:29.343Z,14.27
2019-04-30T08:45:59.482Z,18.97
2019-04-30T08:48:43.857Z,13.03
2019-04-30T08:50:59.544Z,10.53
2019-04-30T08:53:32.841Z,8.37
2019-04-30T08:55:59.160Z,4.67
2019-04-30T08:58:29.229Z,8.27
2019-04-30T09:00:58.775Z,4.87
2019-04-30T09:03:29.480Z,11.10
2019-04-30T09:05:59.607Z,9.20
2019-04-30T09:08:29.446Z,11.20
2019-04-30T09:10:59.518Z,4.90
2019-04-30T09:13:28.767Z,8.23
2019-04-30T09:15:59.350Z,12.10
2019-04-30T09:18:29.214Z,6.57
2019-04-30T09:21:04.213Z,10.97
2019-04-30T09:23:43.022Z,6.37
2019-04-30T09:25:58.714Z,10.20
2019-04-30T09:28:29.347Z,7.10
2019-04-30T09:30:58.670Z,11.83
2019-04-30T09:33:29.268Z,12.43
2019-04-30T09:35:59.514Z,9.83
2019-04-30T09:38:29.051Z,14.27
2019-04-30T09:40:59.449Z,6.60
2019-04-30T09:43:28.701Z,5.80
2019-04-30T09:45:59.147Z,7.10
2019-04-30T09:48:30.338Z,8.43
2019-04-30T09:51:00.476Z,7.07
2019-04-30T09:53:29.719Z,32.40
2019-04-30T09:55:59.621Z,14.00
2019-04-30T09:58:30.002Z,19.30
2019-04-30T10:00:59.318Z,14.90
2019-04-30T10:03:30.260Z,19.67
2019-04-30T10:05:59.057Z,15.87
2019-04-30T10:08:30.338Z,21.37
2019-04-30T10:11:00.198Z,11.30
2019-04-30T10:13:28.824Z,13.83
2019-04-30T10:16:05.160Z,13.93
2019-04-30T10:18:33.861Z,13.43
2019-04-30T10:21:02.491Z,9.03
2019-04-30T10:23:31.119Z,7.37
2019-04-30T10:25:59.764Z,10.90
2019-04-30T10:28:28.703Z,11.83
2019-04-30T10:30:57.357Z,6.07
2019-04-30T10:33:25.987Z,7.80
2019-04-30T10:35:54.616Z,8.53
2019-04-30T10:38:23.456Z,6.70
2019-04-30T10:40:52.078Z,8.10
2019-04-30T10:43:20.652Z,10.30
2019-04-30T10:45:49.284Z,8.53
2019-04-30T10:48:18.061Z,13.07
2019-04-30T10:50:46.690Z,6.37
2019-04-30T10:53:15.616Z,8.27
2019-04-30T10:55:44.311Z,8.17
2019-04-30T10:58:15.379Z,9.80
2019-04-30T11:00:43.376Z,4.00
2019-04-30T11:03:19.914Z,6.53
2019-04-30T11:05:42.409Z,4.53
2019-04-30T11:08:11.233Z,7.23
2019-04-30T11:10:40.112Z,5.03
2019-04-30T11:13:08.775Z,4.87
2019-04-30T11:15:39.303Z,7.43
2019-04-30T11:18:07.880Z,7.37
2019-04-30T11:20:36.705Z,3.00
2019-04-30T11:23:14.253Z,6.93
2019-04-30T11:25:37.112Z,9.63
2019-04-30T11:28:06.750Z,5.57
2019-04-30T11:30:36.437Z,7.03
2019-04-30T11:33:05.395Z,3.73
2019-04-30T11:35:34.241Z,7.83
2019-04-30T11:38:20.490Z,6.40
2019-04-30T11:40:48.659Z,5.87
2019-04-30T11:43:18.227Z,8.00
2019-04-30T11:45:58.679Z,5.93
2019-04-30T11:48:28.870Z,4.53
2019-04-30T11:50:59.432Z,7.67
2019-04-30T11:53:30.647Z,9.13
2019-04-30T11:55:59.167Z,6.63
2019-04-30T11:58:30.401Z,7.43
2019-04-30T12:00:59.294Z,9.03
2019-04-30T12:03:28.659Z,10.60
2019-04-30T12:05:58.945Z,8.47
2019-04-30T12:08:29.423Z,7.90
2019-04-30T12:11:02.472Z,7.83
2019-04-30T12:13:31.986Z,8.30
2019-04-30T12:15:59.655Z,11.93
2019-04-30T12:18:28.583Z,4.07
2019-04-30T12:20:57.224Z,6.77
2019-04-30T12:23:25.859Z,5.47
2019-04-30T12:25:54.601Z,8.80
2019-04-30T12:28:23.243Z,4.47
2019-04-30T12:30:51.881Z,7.57
2019-04-30T12:33:20.501Z,5.67
2019-04-30T12:35:51.340Z,5.03
2019-04-30T12:38:19.475Z,12.47
2019-04-30T12:40:48.218Z,6.50
2019-04-30T12:43:16.873Z,5.00
2019-04-30T12:45:45.541Z,4.17
2019-04-30T12:48:20.283Z,5.23
2019-04-30T12:50:53.532Z,5.20
2019-04-30T12:53:23.798Z,4.53
2019-04-30T12:56:06.549Z,3.83
2019-04-30T12:58:35.377Z,9.37
2019-04-30T13:01:04.188Z,3.13
2019-04-30T13:03:32.767Z,7.57
2019-04-30T13:06:02.527Z,6.43
2019-04-30T13:08:32.379Z,3.60
2019-04-30T13:11:01.970Z,13.67
2019-04-30T13:13:32.168Z,5.57
2019-04-30T13:16:01.162Z,8.37
2019-04-30T13:18:29.806Z,4.47
2019-04-30T13:20:58.952Z,6.57
2019-04-30T13:23:29.783Z,6.60
2019-04-30T13:26:00.857Z,5.20
2019-04-30T13:28:30.638Z,6.50
2019-04-30T13:30:59.408Z,4.50
2019-04-30T13:33:29.692Z,16.40
2019-04-30T13:35:58.899Z,18.17
2019-04-30T13:38:29.290Z,3.33
2019-04-30T13:40:59.581Z,8.27
2019-04-30T13:43:45.014Z,2.83
2019-04-30T13:46:13.661Z,7.47
2019-04-30T13:48:42.280Z,3.47
2019-04-30T13:51:10.927Z,3.77
2019-04-30T13:53:39.645Z,4.57
2019-04-30T13:56:08.889Z,6.87
2019-04-30T13:58:37.581Z,6.27
2019-04-30T14:01:06.481Z,6.77
2019-04-30T14:03:36.758Z,7.83
2019-04-30T14:06:06.456Z,1.73
2019-04-30T14:08:51.813Z,6.83
2019-04-30T14:11:20.439Z,3.70
2019-04-30T14:13:49.197Z,5.30
2019-04-30T14:16:17.896Z,7.83
2019-04-30T14:18:48.675Z,2.17
2019-04-30T14:21:16.884Z,4.10
2019-04-30T14:23:47.300Z,5.67
2019-04-30T14:26:15.932Z,4.43
2019-04-30T14:28:46.617Z,4.63
2019-04-30T14:31:15.007Z,3.27
2019-04-30T14:33:43.639Z,5.13
2019-04-30T14:36:13.723Z,2.87
2019-04-30T14:38:42.348Z,3.40
2019-04-30T14:41:11.907Z,7.03
2019-04-30T14:43:44.231Z,6.60
2019-04-30T14:46:33.718Z,5.10
2019-04-30T14:49:10.057Z,4.30
2019-04-30T14:51:37.670Z,4.90
2019-04-30T14:54:09.529Z,5.30
2019-04-30T14:56:51.847Z,3.10
2019-04-30T14:59:39.037Z,3.47
2019-04-30T15:02:29.577Z,9.43
2019-04-30T15:04:58.735Z,4.43
2019-04-30T15:07:29.446Z,7.47
2019-04-30T15:09:59.487Z,6.17
2019-04-30T15:12:29.447Z,5.77
2019-04-30T15:14:59.787Z,9.30
2019-04-30T15:17:28.417Z,4.33
2019-04-30T15:19:58.950Z,8.37
2019-04-30T15:22:29.287Z,11.30
2019-04-30T15:24:59.170Z,6.63
2019-04-30T15:27:29.096Z,7.20
2019-04-30T15:30:00.509Z,5.57
2019-04-30T15:32:30.627Z,6.20
2019-04-30T15:34:59.338Z,6.33
2019-04-30T15:37:28.741Z,4.73
2019-04-30T15:39:59.274Z,5.03
2019-04-30T15:42:28.026Z,6.43
2019-04-30T15:44:56.666Z,4.60
2019-04-30T15:47:25.288Z,6.40
2019-04-30T15:49:53.934Z,6.37
2019-04-30T15:52:24.203Z,6.90
2019-04-30T15:54:52.839Z,9.43
2019-04-30T15:57:21.517Z,4.27
2019-04-30T15:59:50.108Z,6.27
2019-04-30T16:02:23.139Z,3.07
2019-04-30T16:05:11.735Z,8.00
2019-04-30T16:07:42.023Z,4.87
2019-04-30T16:10:28.525Z,5.47
2019-04-30T16:12:58.958Z,6.13
2019-04-30T16:15:31.784Z,5.13
2019-04-30T16:18:02.052Z,9.10
2019-04-30T16:20:32.072Z,4.57
2019-04-30T16:23:00.827Z,3.87
2019-04-30T16:25:30.314Z,5.67
2019-04-30T16:27:59.260Z,7.83
2019-04-30T16:30:28.941Z,7.23
2019-04-30T16:33:19.492Z,9.97
2019-04-30T16:35:50.803Z,6.83
2019-04-30T16:38:20.763Z,9.03
2019-04-30T16:40:49.065Z,10.97
2019-04-30T16:43:18.639Z,10.13
2019-04-30T16:45:49.376Z,23.97
2019-04-30T16:48:19.425Z,9.63
2019-04-30T16:50:51.175Z,8.77
2019-04-30T16:53:24.648Z,11.27
2019-04-30T16:55:52.058Z,8.93
2019-04-30T16:58:22.061Z,10.27
2019-04-30T17:00:52.125Z,6.97
2019-04-30T17:03:28.770Z,8.53
2019-04-30T17:05:59.666Z,7.67
2019-04-30T17:08:32.831Z,8.37
2019-04-30T17:11:07.433Z,9.93
2019-04-30T17:13:38.902Z,7.63
2019-04-30T17:16:11.338Z,11.00
2019-04-30T17:18:41.708Z,17.03
2019-04-30T17:21:10.596Z,16.40
2019-04-30T17:23:39.266Z,22.70
2019-04-30T17:26:07.995Z,23.40
2019-04-30T17:28:38.613Z,7.43
2019-04-30T17:31:24.660Z,23.70
2019-04-30T17:33:53.356Z,102.20
2019-04-30T17:36:23.445Z,57.47
2019-04-30T17:38:53.722Z,73.13
2019-04-30T17:41:22.480Z,131.73
2019-04-30T17:43:51.207Z,67.27
2019-04-30T17:46:20.212Z,47.83
2019-04-30T17:48:50.498Z,19.00
2019-04-30T17:51:19.414Z,37.37
2019-04-30T17:54:07.129Z,31.17
2019-04-30T17:56:35.757Z,31.00
2019-04-30T17:59:06.813Z,26.37
2019-04-30T18:01:36.014Z,26.00
2019-04-30T18:04:04.691Z,19.00
2019-04-30T18:06:33.413Z,23.50
2019-04-30T18:09:02.116Z,26.80
2019-04-30T18:11:32.282Z,27.93
2019-04-30T18:14:00.952Z,16.20
2019-04-30T18:16:29.606Z,24.07
2019-04-30T18:19:02.844Z,27.03
2019-04-30T18:21:40.123Z,28.63
2019-04-30T18:24:19.715Z,31.40
2019-04-30T18:26:51.755Z,28.70
2019-04-30T18:29:20.411Z,16.93
2019-04-30T18:31:50.688Z,11.60
2019-04-30T18:34:19.509Z,11.03
2019-04-30T18:36:48.652Z,13.17
2019-04-30T18:39:18.916Z,10.37
2019-04-30T18:41:50.476Z,9.17
2019-04-30T18:44:20.168Z,6.83
2019-04-30T18:46:49.436Z,11.37
2019-04-30T18:49:18.734Z,14.00
2019-04-30T18:51:49.209Z,9.60
2019-04-30T18:54:18.372Z,7.90
2019-04-30T18:56:49.003Z,10.20
2019-04-30T18:59:19.517Z,5.13
2019-04-30T19:01:48.404Z,5.23
2019-04-30T19:04:18.943Z,5.33
2019-04-30T19:06:47.503Z,8.00
2019-04-30T19:09:33.084Z,7.67
2019-04-30T19:12:21.688Z,8.23
2019-04-30T19:14:54.705Z,11.07
2019-04-30T19:17:29.398Z,6.00
2019-04-30T19:19:59.685Z,5.77
2019-04-30T19:22:28.681Z,3.80
2019-04-30T19:25:00.772Z,8.40
2019-04-30T19:27:29.577Z,5.77
2019-04-30T19:29:59.451Z,8.93
2019-04-30T19:32:30.315Z,10.10
2019-04-30T19:35:00.268Z,4.30
2019-04-30T19:37:28.908Z,8.60
2019-04-30T19:39:59.256Z,5.87
2019-04-30T19:42:29.503Z,18.93
2019-04-30T19:45:08.938Z,6.57
2019-04-30T19:47:30.754Z,6.03
2019-04-30T19:49:59.517Z,9.27
2019-04-30T19:52:29.651Z,4.43
2019-04-30T19:54:58.719Z,8.70
2019-04-30T19:57:28.658Z,7.10
2019-04-30T19:59:58.690Z,10.07
2019-04-30T20:02:29.471Z,9.57
2019-04-30T20:04:59.068Z,6.50
2019-04-30T20:07:29.085Z,6.33
2019-04-30T20:10:03.470Z,3.27
2019-04-30T20:12:29.081Z,8.67
2019-04-30T20:15:00.569Z,5.07
2019-04-30T20:17:29.654Z,8.97
2019-04-30T20:19:58.894Z,3.40
2019-04-30T20:22:29.293Z,4.40
2019-04-30T20:24:59.271Z,5.47
2019-04-30T20:27:29.894Z,6.03
2019-04-30T20:29:59.249Z,5.60
2019-04-30T20:32:36.210Z,4.07
2019-04-30T20:34:59.771Z,4.00
2019-04-30T20:37:29.910Z,4.30
2019-04-30T20:40:00.108Z,2.37
2019-04-30T20:42:28.864Z,4.53
2019-04-30T20:44:58.909Z,3.63
2019-04-30T20:47:29.841Z,3.47
2019-04-30T20:49:58.005Z,3.10
2019-04-30T20:52:29.083Z,7.80
2019-04-30T20:54:57.723Z,6.03
2019-04-30T20:57:26.368Z,2.77
2019-04-30T20:59:55.006Z,2.73
2019-04-30T21:02:23.698Z,9.70
2019-04-30T21:04:52.396Z,4.07
2019-04-30T21:07:21.005Z,8.20
2019-04-30T21:09:49.669Z,3.17
2019-04-30T21:12:18.869Z,9.07
2019-04-30T21:14:48.542Z,3.17
2019-04-30T21:17:17.279Z,5.57
2019-04-30T21:19:45.906Z,6.80
2019-04-30T21:22:14.548Z,3.87
2019-04-30T21:24:43.097Z,8.30
2019-04-30T21:27:11.708Z,2.60
2019-04-30T21:29:40.397Z,4.83
2019-04-30T21:32:16.513Z,3.47
2019-04-30T21:34:46.788Z,8.63
2019-04-30T21:37:15.267Z,3.30
2019-04-30T21:39:43.916Z,4.87
2019-04-30T21:42:12.542Z,4.27
2019-04-30T21:44:41.173Z,9.17
2019-04-30T21:47:09.810Z,4.53
2019-04-30T21:49:38.455Z,6.30
2019-04-30T21:52:07.074Z,3.33
2019-04-30T21:54:38.781Z,2.97
2019-04-30T21:57:06.040Z,4.10
2019-04-30T21:59:34.695Z,4.83
2019-04-30T22:02:03.707Z,9.13
2019-04-30T22:04:32.343Z,9.53
2019-04-30T22:07:00.919Z,2.90
2019-04-30T22:09:29.727Z,4.97
2019-04-30T22:11:59.208Z,5.10
2019-04-30T22:14:27.999Z,4.37
2019-04-30T22:16:56.637Z,10.67
2019-04-30T22:19:25.333Z,5.70
2019-04-30T22:21:54.259Z,4.93
2019-04-30T22:24:24.741Z,3.47
2019-04-30T22:26:53.324Z,8.07
2019-04-30T22:29:22.010Z,4.90
2019-04-30T22:31:50.646Z,12.47
2019-04-30T22:34:19.462Z,2.97
2019-04-30T22:36:49.002Z,3.20
2019-04-30T22:39:25.360Z,7.90
2019-04-30T22:42:03.064Z,5.87
2019-04-30T22:44:31.673Z,3.10
2019-04-30T22:47:00.734Z,4.60
2019-04-30T22:49:29.447Z,4.40
2019-04-30T22:51:58.077Z,5.20
2019-04-30T22:54:26.705Z,6.87
2019-04-30T22:56:55.334Z,4.73
2019-04-30T22:59:23.964Z,4.03
2019-04-30T23:01:57.014Z,3.60
2019-04-30T23:04:42.710Z,4.53
2019-04-30T23:07:11.388Z,6.43
2019-04-30T23:09:40.016Z,3.90
2019-04-30T23:12:08.718Z,8.63
2019-04-30T23:14:37.287Z,3.53
2019-04-30T23:17:06.159Z,5.77
2019-04-30T23:19:34.752Z,9.07
2019-04-30T23:22:03.379Z,3.83
2019-04-30T23:24:32.005Z,5.90
2019-04-30T23:27:00.571Z,4.97
2019-04-30T23:29:29.276Z,4.43
2019-04-30T23:31:58.116Z,3.13
2019-04-30T23:34:26.781Z,8.87
2019-04-30T23:36:55.401Z,6.40
2019-04-30T23:39:23.955Z,7.57
2019-04-30T23:41:52.598Z,4.37
2019-04-30T23:44:21.224Z,5.60
2019-04-30T23:46:49.854Z,5.17
2019-04-30T23:49:18.518Z,5.60
2019-04-30T23:51:47.142Z,5.10
2019-04-30T23:54:15.757Z,5.13
2019-04-30T23:56:44.386Z,4.67
2019-04-30T23:59:13.199Z,6.33
